Reidsville, Georgia
Current Conditions -  °F | °C
As of 11:15 PM on Sunday 23 Nov 2014 (Local Time) from KVDI Reporting Station
Moderate Rain Moderate Rain  
Wind Chill: 64°   Ceiling: 700
Heat Index: 64°   Visibility: 7mi
Dew Point: 64°   Wind: 9mph
Humidity: 100%   Direction: 210°SSW
Pressure: 29.84"   Gusts: NA
Location:  32.08°N, 82.12°W
Report Text: KVDI 240415Z AUTO 21008KT 7SM RA BKN007 BKN013 OVC022 18/18 A2984 RMK AO2 LTG DSNT E
Loading
Personal Weather Stations






























Interactive Weather Map New forecast layout! Learn more

10-Day Weather Forecast

Advertisements
Track Severe Weather on mobile